Time;durP1;ratioP1;P1;durP2;ratioP2;P2;SDS_P1;SDS_P2;PMS_P1;PMS_P2;Temp;Humidity;BMP_temperature;BMP_pressure;BME280_temperature;BME280_humidity;BME280_pressure;Samples;Min_cycle;Max_cycle;Signal;HPM_P1;HPM_P2
2023/06/24 00:20:09;;;;;;;10.50;9.60;;;;;;;26.12;46.91;100437.72;109530;1262;67697;-89
2023/06/24 00:52:38;;;;;;;10.80;9.70;;;;;;;26.10;47.32;100408.30;109497;1262;83126;-87
2023/06/24 00:55:16;;;;;;;16.10;10.10;;;;;;;26.10;47.29;100411.27;109281;1262;67795;-89
2023/06/24 01:53:04;;;;;;;11.70;8.70;;;;;;;26.05;47.26;100446.56;109670;1260;65381;-89
2023/06/24 03:01:49;;;;;;;9.60;8.70;;;;;;;26.01;47.28;100534.86;109489;1263;66761;-89
2023/06/24 03:39:37;;;;;;;10.50;9.00;;;;;;;26.00;47.44;100538.45;109601;1261;67319;-88
2023/06/24 03:42:08;;;;;;;10.60;9.40;;;;;;;26.00;47.37;100536.14;109650;1257;74391;-88
2023/06/24 03:56:16;;;;;;;10.50;9.40;;;;;;;26.00;47.48;100537.98;109605;1260;74464;-89
2023/06/24 03:58:58;;;;;;;9.60;8.70;;;;;;;26.00;47.38;100541.43;109348;1260;67623;-89
2023/06/24 04:01:36;;;;;;;11.30;8.40;;;;;;;26.01;47.54;100544.00;109575;1260;67370;-89
2023/06/24 04:51:05;;;;;;;8.90;8.00;;;;;;;26.00;47.68;100522.98;109530;1262;74226;-89
2023/06/24 04:53:49;;;;;;;9.10;8.30;;;;;;;26.01;47.72;100526.16;109411;1262;67229;31
2023/06/24 05:29:59;;;;;;;9.20;8.30;;;;;;;26.06;47.62;100530.02;109656;1260;67130;-89
2023/06/24 05:35:16;;;;;;;9.10;8.20;;;;;;;26.08;47.74;100536.23;109623;1261;66906;-89
2023/06/24 06:58:26;;;;;;;10.10;8.60;;;;;;;26.20;47.65;100587.17;109572;1261;71503;-89
2023/06/24 07:09:12;;;;;;;10.90;9.40;;;;;;;26.23;47.54;100587.22;109638;1260;67085;-89
2023/06/24 07:11:48;;;;;;;10.50;9.40;;;;;;;26.23;47.61;100585.77;109599;1261;73115;-88
2023/06/24 07:17:22;;;;;;;10.40;9.40;;;;;;;26.25;47.58;100579.75;109576;1261;68196;-88
2023/06/24 07:58:46;;;;;;;11.60;10.50;;;;;;;26.36;47.71;100555.09;109717;1260;67140;-89
2023/06/24 08:04:26;;;;;;;12.20;9.90;;;;;;;26.37;47.91;100549.94;109712;1261;67171;-89
2023/06/24 08:44:30;;;;;;;12.40;9.90;;;;;;;26.43;47.84;100519.65;109750;1260;67560;-89
2023/06/24 08:55:28;;;;;;;10.80;9.80;;;;;;;26.46;47.65;100517.70;109644;1260;67442;-89
2023/06/24 09:06:42;;;;;;;10.40;9.40;;;;;;;26.48;47.71;100509.83;109562;1260;67888;-89
2023/06/24 09:20:25;;;;;;;11.10;9.40;;;;;;;26.48;47.57;100519.02;109490;1260;66872;-88
2023/06/24 09:31:12;;;;;;;10.60;9.50;;;;;;;26.51;47.36;100523.63;109538;1261;67860;-89
2023/06/24 12:43:12;;;;;;;9.00;7.60;;;;;;;26.75;46.27;100321.95;109626;1260;67496;-88
2023/06/24 12:45:38;;;;;;;7.70;7.00;;;;;;;26.77;46.48;100321.13;109202;1262;67623;-88
2023/06/24 12:48:05;;;;;;;8.30;7.50;;;;;;;26.78;46.61;100321.09;109236;1260;70862;-89
2023/06/24 12:50:32;;;;;;;7.70;7.00;;;;;;;26.81;46.50;100315.46;109550;1260;67185;-89
2023/06/24 12:52:58;;;;;;;7.80;7.20;;;;;;;26.83;46.46;100309.16;109343;1260;66985;-89
2023/06/24 12:55:24;;;;;;;8.20;6.90;;;;;;;26.84;46.46;100306.30;109484;1260;67372;-89
2023/06/24 13:00:22;;;;;;;7.90;7.10;;;;;;;26.85;46.34;100308.09;109526;1260;67648;-87
2023/06/24 13:02:48;;;;;;;7.60;6.90;;;;;;;26.85;46.24;100310.16;108429;1267;556845;-87
2023/06/24 13:05:14;;;;;;;8.60;7.50;;;;;;;26.84;46.19;100315.65;109190;1261;67058;-87
2023/06/24 13:07:40;;;;;;;7.60;6.90;;;;;;;26.83;46.02;100312.15;109195;1263;67576;-87
2023/06/24 13:10:06;;;;;;;8.30;7.50;;;;;;;26.83;46.04;100307.73;109291;1263;67570;-87
2023/06/24 13:12:33;;;;;;;10.40;8.30;;;;;;;26.83;46.00;100313.29;109368;1262;67053;-88
2023/06/24 13:14:59;;;;;;;8.80;8.00;;;;;;;26.83;45.91;100309.84;109146;1263;67613;-88
2023/06/24 13:17:24;;;;;;;11.50;8.30;;;;;;;26.83;45.96;100306.86;109343;1263;67712;-87
2023/06/24 13:19:51;;;;;;;9.20;7.70;;;;;;;26.83;45.92;100309.85;109168;1261;66970;-88
2023/06/24 13:22:17;;;;;;;10.50;8.20;;;;;;;26.83;45.96;100308.03;109135;1262;67469;-88
2023/06/24 13:24:43;;;;;;;9.30;8.30;;;;;;;26.83;45.79;100309.59;109353;1262;67502;-88
2023/06/24 13:27:09;;;;;;;9.30;8.40;;;;;;;26.83;45.85;100317.80;109357;1264;67543;-88
2023/06/24 13:29:35;;;;;;;10.20;9.10;;;;;;;26.82;45.85;100322.86;109350;1263;66858;-88
2023/06/24 13:32:02;;;;;;;11.10;9.90;;;;;;;26.83;45.72;100324.50;109299;1262;66887;-88
2023/06/24 13:34:28;;;;;;;12.10;10.80;;;;;;;26.83;45.65;100319.80;109313;1263;66881;-89
2023/06/24 13:36:57;;;;;;;12.40;11.30;;;;;;;26.83;45.73;100318.85;109521;1262;67374;-89
2023/06/24 13:39:23;;;;;;;13.60;11.10;;;;;;;26.83;45.69;100322.34;109554;1261;74219;-89
2023/06/24 13:41:52;;;;;;;11.40;10.30;;;;;;;26.83;45.70;100325.22;109467;1263;66900;-89
2023/06/24 13:44:21;;;;;;;11.00;9.90;;;;;;;26.83;45.57;100322.80;109476;1261;66940;-88
2023/06/24 13:47:00;;;;;;;11.20;10.10;;;;;;;26.83;45.59;100319.91;109560;1266;66824;-88
2023/06/24 13:56:29;;;;;;;10.70;9.70;;;;;;;26.80;45.37;100316.77;109634;1261;67248;-88
2023/06/24 14:05:19;;;;;;;10.30;9.20;;;;;;;26.78;45.61;100308.71;109675;1260;71466;-88
2023/06/24 14:13:11;;;;;;;13.50;9.10;;;;;;;26.77;45.52;100298.30;109617;1260;66991;-89
2023/06/24 14:21:08;;;;;;;10.00;9.10;;;;;;;26.78;45.48;100294.72;109603;1262;66913;-89
2023/06/24 14:23:37;;;;;;;9.70;8.80;;;;;;;26.79;45.24;100290.54;109466;1260;67286;-89
2023/06/24 14:26:07;;;;;;;9.90;8.90;;;;;;;26.78;45.23;100288.63;109447;1260;67489;-90
2023/06/24 14:28:33;;;;;;;10.80;9.20;;;;;;;26.78;45.29;100288.21;109505;1260;67093;-89
2023/06/24 14:31:02;;;;;;;9.30;8.40;;;;;;;26.78;45.23;100287.50;109360;1261;73120;-89
2023/06/24 14:36:01;;;;;;;11.10;9.80;;;;;;;26.78;45.24;100286.96;109591;1262;67045;-89
2023/06/24 14:38:33;;;;;;;10.50;9.40;;;;;;;26.79;45.42;100281.52;109638;1262;67531;-89
2023/06/24 14:41:02;;;;;;;12.50;9.60;;;;;;;26.81;45.67;100273.14;109649;1261;67078;-88
2023/06/24 14:43:28;;;;;;;11.10;10.00;;;;;;;26.82;45.69;100268.52;109561;1263;74017;-89
2023/06/24 14:45:57;;;;;;;12.20;10.30;;;;;;;26.85;45.92;100266.99;109494;1262;67792;-89
2023/06/24 14:50:54;;;;;;;12.00;10.30;;;;;;;26.88;45.96;100267.13;109536;1261;67385;-90
2023/06/24 14:53:22;;;;;;;15.20;13.60;;;;;;;26.88;46.03;100266.34;109575;1262;67444;-89
2023/06/24 14:55:51;;;;;;;30.20;27.00;;;;;;;26.90;45.91;100266.05;109578;1260;74311;-89
2023/06/24 15:03:44;;;;;;;29.40;23.90;;;;;;;26.92;45.53;100266.55;109596;1260;67498;-89
2023/06/24 15:06:14;;;;;;;20.80;17.90;;;;;;;26.93;45.45;100264.92;109391;1263;67438;-89
2023/06/24 15:20:01;;;;;;;14.70;13.20;;;;;;;26.94;45.23;100259.83;109586;1262;66855;-89
2023/06/24 15:28:06;;;;;;;15.10;13.60;;;;;;;26.95;45.17;100255.10;109542;1263;67141;-88
2023/06/24 15:30:35;;;;;;;14.30;12.90;;;;;;;26.95;45.09;100257.38;109390;1260;67483;-88
2023/06/24 15:33:04;;;;;;;15.20;13.50;;;;;;;26.95;45.03;100264.61;109372;1260;67576;-88
2023/06/24 15:35:33;;;;;;;14.40;13.00;;;;;;;26.95;44.87;100272.81;109583;1260;74165;-88
2023/06/24 15:40:35;;;;;;;13.70;12.10;;;;;;;26.94;45.07;100270.17;109502;1262;67560;-88
2023/06/24 15:43:02;;;;;;;13.90;12.40;;;;;;;26.92;45.06;100268.60;109554;1262;67596;-89
2023/06/24 15:45:32;;;;;;;12.30;11.10;;;;;;;26.92;44.93;100271.52;109490;1262;67568;-88
2023/06/24 15:47:58;;;;;;;13.50;11.90;;;;;;;26.91;45.03;100274.02;109517;1262;74120;-90
2023/06/24 15:50:28;;;;;;;12.80;11.60;;;;;;;26.91;45.01;100274.84;109411;1260;67572;-89
2023/06/24 15:52:55;;;;;;;15.10;12.30;;;;;;;26.91;44.99;100277.21;109421;1260;67675;-89
2023/06/24 15:55:24;;;;;;;12.70;11.40;;;;;;;26.90;45.17;100276.83;109305;1261;67948;-89
2023/06/24 15:57:54;;;;;;;15.70;11.20;;;;;;;26.89;44.98;100271.53;109385;1260;67459;-89
2023/06/24 16:00:21;;;;;;;12.60;11.40;;;;;;;26.89;45.06;100272.73;109640;1259;74231;-87
2023/06/24 16:02:48;;;;;;;12.00;10.80;;;;;;;26.88;44.99;100271.86;109393;1260;67605;-90
2023/06/24 16:05:17;;;;;;;12.10;11.00;;;;;;;26.89;45.20;100267.36;109297;1262;67581;-89
2023/06/24 16:07:44;;;;;;;12.90;11.70;;;;;;;26.89;45.32;100264.11;109367;1262;67623;-89
2023/06/24 16:10:14;;;;;;;11.60;10.50;;;;;;;26.89;45.39;100262.41;109282;1263;67458;-88
2023/06/24 16:12:43;;;;;;;11.60;10.50;;;;;;;26.89;45.37;100262.40;109401;1260;75194;-89
2023/06/24 16:17:45;;;;;;;11.50;10.40;;;;;;;26.87;45.36;100260.69;109611;1259;67621;-89
2023/06/24 16:20:16;;;;;;;11.20;10.10;;;;;;;26.88;45.28;100262.70;109248;1263;66844;-89
2023/06/24 16:22:43;;;;;;;13.10;10.30;;;;;;;26.87;45.36;100260.39;109450;1262;66908;-89
2023/06/24 16:25:13;;;;;;;11.60;10.50;;;;;;;26.86;45.25;100263.04;109389;1260;75126;-89
2023/06/24 16:27:40;;;;;;;11.20;10.10;;;;;;;26.86;45.23;100264.02;109453;1260;67402;-89
2023/06/24 16:32:32;;;;;;;11.20;10.00;;;;;;;26.85;45.36;100265.34;109619;1260;67476;-89
2023/06/24 16:37:35;;;;;;;11.10;10.00;;;;;;;26.84;45.31;100277.19;109694;1260;74464;-88
2023/06/24 16:40:05;;;;;;;11.40;10.30;;;;;;;26.85;45.24;100279.48;109388;1260;67595;-88
2023/06/24 16:50:47;;;;;;;11.40;10.30;;;;;;;26.83;45.28;100309.89;109578;1261;74512;-88
2023/06/24 16:53:18;;;;;;;10.80;9.70;;;;;;;26.83;45.37;100324.61;109286;1261;67693;-89
2023/06/24 16:55:45;;;;;;;10.50;9.50;;;;;;;26.83;45.27;100355.27;109440;1262;67722;-89
2023/06/24 16:58:14;;;;;;;9.90;9.00;;;;;;;26.83;45.31;100369.88;109537;1260;67735;-89
2023/06/24 17:00:43;;;;;;;14.90;10.20;;;;;;;26.82;45.45;100368.86;109503;1260;67537;-89
2023/06/24 17:03:12;;;;;;;15.40;13.80;;;;;;;26.83;45.38;100382.36;109489;1260;84605;-88
2023/06/24 17:05:39;;;;;;;14.50;12.60;;;;;;;26.82;45.42;100389.87;109490;1262;67457;-89
2023/06/24 17:08:08;;;;;;;15.10;13.10;;;;;;;26.82;45.37;100407.73;109312;1260;67637;-89
2023/06/24 17:10:37;;;;;;;16.10;12.60;;;;;;;26.82;45.37;100418.17;109446;1265;67423;-89
2023/06/24 17:15:51;;;;;;;14.90;12.70;;;;;;;26.81;45.45;100434.76;109515;1263;74056;-89
2023/06/24 17:18:18;;;;;;;14.80;11.80;;;;;;;26.81;45.44;100447.09;109554;1261;66808;-87
2023/06/24 17:35:32;;;;;;;15.10;11.10;;;;;;;26.76;45.63;100454.27;109506;1262;67397;-89
2023/06/24 17:38:01;;;;;;;15.50;10.40;;;;;;;26.75;45.63;100451.39;109255;1260;67524;-89
2023/06/24 17:40:28;;;;;;;11.70;10.30;;;;;;;26.75;45.57;100456.91;109284;1264;67027;-89
2023/06/24 17:43:00;;;;;;;15.00;10.50;;;;;;;26.74;45.60;100464.52;109325;1260;74188;-89
2023/06/24 17:45:30;;;;;;;13.00;9.80;;;;;;;26.74;45.62;100477.98;109464;1260;67579;-89
2023/06/24 17:48:06;;;;;;;14.40;10.00;;;;;;;26.74;45.58;100493.55;109329;1260;66957;31
2023/06/24 17:50:33;;;;;;;12.90;10.40;;;;;;;26.73;45.68;100500.85;109485;1262;67603;-89
2023/06/24 17:55:36;;;;;;;12.40;10.10;;;;;;;26.73;45.62;100528.52;109520;1261;74252;-89
2023/06/24 17:58:06;;;;;;;16.20;9.90;;;;;;;26.71;45.67;100537.77;109292;1260;67701;-88
2023/06/24 18:00:39;;;;;;;15.40;10.20;;;;;;;26.71;45.80;100540.68;109363;1260;67350;-89
2023/06/24 18:03:09;;;;;;;12.80;10.30;;;;;;;26.70;45.74;100546.77;109342;1261;67606;-89
2023/06/24 18:05:35;;;;;;;12.60;9.80;;;;;;;26.70;45.74;100549.73;109511;1260;67569;-89
2023/06/24 18:08:05;;;;;;;14.30;9.50;;;;;;;26.70;45.85;100558.66;109171;1260;67012;-89
2023/06/24 18:10:39;;;;;;;13.20;10.00;;;;;;;26.70;45.71;100564.87;109474;1260;67603;-89
2023/06/24 18:13:09;;;;;;;13.90;9.60;;;;;;;26.69;45.71;100565.77;109309;1260;67689;-89
2023/06/24 18:15:38;;;;;;;14.30;10.30;;;;;;;26.68;45.69;100563.59;109570;1260;67541;-89
2023/06/24 18:20:57;;;;;;;12.30;9.10;;;;;;;26.68;45.75;100549.59;109593;1260;75109;31
2023/06/24 18:23:24;;;;;;;10.50;9.40;;;;;;;26.67;45.81;100551.04;109469;1263;67527;-88
2023/06/24 18:25:53;;;;;;;12.70;9.60;;;;;;;26.67;45.83;100557.07;109227;1262;67040;-89
2023/06/24 18:28:23;;;;;;;11.20;9.50;;;;;;;26.68;45.80;100551.14;109475;1261;68055;-89
2023/06/24 18:30:53;;;;;;;11.50;9.40;;;;;;;26.67;45.81;100540.56;109534;1261;66938;-90
2023/06/24 18:33:22;;;;;;;10.70;9.60;;;;;;;26.66;45.79;100524.05;109328;1260;74161;-89
2023/06/24 18:35:49;;;;;;;12.50;9.60;;;;;;;26.66;45.90;100525.11;109345;1260;67480;-86
2023/06/24 18:38:15;;;;;;;10.50;8.70;;;;;;;26.66;45.86;100542.55;109522;1261;67442;-89
2023/06/24 18:40:44;;;;;;;11.70;9.20;;;;;;;26.65;45.94;100549.06;109333;1260;67663;-89
2023/06/24 18:43:11;;;;;;;11.60;9.20;;;;;;;26.65;45.77;100552.13;109600;1261;67514;-89
2023/06/24 18:45:41;;;;;;;11.50;9.00;;;;;;;26.65;45.72;100552.95;109463;1260;75371;-89
2023/06/24 18:48:08;;;;;;;11.40;9.70;;;;;;;26.64;45.94;100553.94;109322;1260;67496;-88
2023/06/24 18:53:20;;;;;;;11.50;8.90;;;;;;;26.63;45.83;100552.52;109523;1262;67458;-89
2023/06/24 18:55:50;;;;;;;10.50;9.40;;;;;;;26.63;45.84;100555.77;109281;1261;67577;-89
2023/06/24 18:58:19;;;;;;;11.60;9.10;;;;;;;26.63;45.87;100562.28;109358;1260;74430;-89
2023/06/24 19:00:46;;;;;;;13.40;8.90;;;;;;;26.63;45.82;100561.83;109358;1260;67466;-89
2023/06/24 19:03:12;;;;;;;9.90;8.90;;;;;;;26.63;45.77;100552.74;109333;1260;66941;-89
2023/06/24 19:05:46;;;;;;;14.90;9.20;;;;;;;26.63;45.77;100547.78;109425;1260;67435;31
2023/06/24 19:08:12;;;;;;;10.80;9.00;;;;;;;26.62;45.77;100548.56;109481;1262;66919;-89
2023/06/24 19:10:41;;;;;;;10.50;8.60;;;;;;;26.62;45.81;100544.19;109319;1261;67629;-90
2023/06/24 19:13:10;;;;;;;11.70;8.90;;;;;;;26.62;45.77;100543.73;109302;1260;67407;-89
2023/06/24 19:15:37;;;;;;;9.30;8.20;;;;;;;26.61;45.84;100539.14;109266;1262;67598;-90
2023/06/24 19:18:03;;;;;;;10.60;8.20;;;;;;;26.61;45.74;100535.91;109361;1260;67507;-89
2023/06/24 19:22:58;;;;;;;10.90;8.20;;;;;;;26.61;45.87;100532.23;109503;1263;66906;-88
2023/06/24 19:25:28;;;;;;;11.60;8.60;;;;;;;26.60;45.77;100532.02;109347;1260;67620;-89
2023/06/24 19:27:54;;;;;;;9.30;7.90;;;;;;;26.59;46.01;100534.95;109415;1260;67505;-89
2023/06/24 19:35:39;;;;;;;11.40;8.00;;;;;;;26.58;45.92;100516.36;109521;1260;74490;-89
2023/06/24 19:38:05;;;;;;;9.60;8.30;;;;;;;26.57;45.91;100507.50;109382;1260;67653;-89
2023/06/24 19:40:32;;;;;;;10.50;7.70;;;;;;;26.57;46.01;100507.09;109386;1261;67248;-89
2023/06/24 19:43:01;;;;;;;11.00;7.70;;;;;;;26.57;46.06;100502.08;109442;1260;67163;-88
2023/06/24 19:45:30;;;;;;;12.10;8.20;;;;;;;26.57;46.06;100498.79;109378;1260;67462;-89
2023/06/24 19:47:59;;;;;;;9.70;7.70;;;;;;;26.57;46.13;100493.12;109322;1260;75306;-88
2023/06/24 19:50:38;;;;;;;10.40;7.60;;;;;;;26.56;46.06;100493.80;109510;1260;67636;31
2023/06/24 19:53:04;;;;;;;10.90;7.40;;;;;;;26.56;45.99;100491.02;109230;1263;67500;-89
2023/06/24 19:58:04;;;;;;;8.60;7.40;;;;;;;26.56;45.95;100484.37;109513;1260;75661;-88
2023/06/24 20:00:32;;;;;;;10.90;7.70;;;;;;;26.56;46.07;100484.63;109538;1260;74005;-89
2023/06/24 20:03:02;;;;;;;10.10;7.70;;;;;;;26.55;46.06;100481.60;109352;1260;67488;-89
2023/06/24 20:05:34;;;;;;;12.10;7.90;;;;;;;26.54;46.10;100486.09;109482;1259;67588;-88
2023/06/24 20:08:00;;;;;;;9.80;7.80;;;;;;;26.54;46.06;100491.31;109383;1261;67522;-89
2023/06/24 20:10:27;;;;;;;8.30;7.10;;;;;;;26.54;46.03;100501.83;109307;1262;67661;-89
2023/06/24 20:12:56;;;;;;;10.30;7.50;;;;;;;26.54;46.11;100510.91;109347;1263;67699;-88
2023/06/24 20:15:28;;;;;;;11.20;7.40;;;;;;;26.54;46.09;100514.89;109412;1260;67686;-88
2023/06/24 20:17:57;;;;;;;9.40;7.60;;;;;;;26.54;46.06;100513.34;109390;1260;67906;-88
2023/06/24 20:20:29;;;;;;;10.30;7.40;;;;;;;26.54;46.07;100519.80;109508;1260;68228;31
2023/06/24 20:22:56;;;;;;;15.40;7.40;;;;;;;26.53;46.24;100522.90;109371;1263;67647;-88
2023/06/24 20:25:22;;;;;;;8.80;7.20;;;;;;;26.53;46.07;100516.46;109383;1262;75794;-88
2023/06/24 20:27:49;;;;;;;9.70;7.40;;;;;;;26.54;46.21;100524.04;109397;1260;68151;-88
2023/06/24 20:30:18;;;;;;;8.70;6.90;;;;;;;26.54;46.28;100530.28;109394;1260;67395;-88
2023/06/24 20:32:47;;;;;;;11.10;6.90;;;;;;;26.53;46.13;100532.24;109525;1260;68252;-88
2023/06/24 20:37:42;;;;;;;7.20;6.50;;;;;;;26.53;46.19;100521.57;109545;1260;68256;-88
2023/06/24 20:40:12;;;;;;;9.40;7.10;;;;;;;26.52;46.18;100517.24;109500;1260;67976;-88
2023/06/24 20:42:41;;;;;;;10.50;6.90;;;;;;;26.52;46.25;100508.02;109328;1260;67687;-88
2023/06/24 20:45:11;;;;;;;9.10;6.90;;;;;;;26.52;46.27;100496.77;109478;1260;67528;-88
2023/06/24 21:03:41;;;;;;;14.80;6.80;;;;;;;26.49;46.22;100453.92;109498;1260;75048;-89
2023/06/24 21:08:53;;;;;;;10.00;6.80;;;;;;;26.49;46.44;100442.41;109520;1260;67491;-89
2023/06/24 21:11:24;;;;;;;9.70;6.70;;;;;;;26.49;46.38;100437.11;109326;1260;68104;-88
2023/06/24 21:13:50;;;;;;;12.10;6.80;;;;;;;26.49;46.34;100435.70;109187;1263;75119;-89
2023/06/24 21:19:01;;;;;;;11.30;6.30;;;;;;;26.49;46.34;100437.21;109513;1260;67014;-90
2023/06/24 21:21:30;;;;;;;9.00;6.60;;;;;;;26.48;46.50;100432.11;109429;1260;66983;-89
2023/06/24 21:24:02;;;;;;;10.60;6.20;;;;;;;26.48;46.40;100422.85;109371;1260;67660;-89
2023/06/24 21:26:29;;;;;;;9.80;6.20;;;;;;;26.48;46.37;100418.98;109491;1260;67543;-89
2023/06/24 21:31:30;;;;;;;8.20;6.30;;;;;;;26.47;46.44;100415.95;109557;1260;67822;-89
2023/06/24 21:33:59;;;;;;;9.60;6.40;;;;;;;26.47;46.43;100413.06;109293;1260;67248;-88
2023/06/24 21:39:12;;;;;;;9.50;6.50;;;;;;;26.46;46.47;100400.09;109538;1263;67416;-89
2023/06/24 21:41:40;;;;;;;9.50;6.30;;;;;;;26.46;46.46;100398.54;109457;1260;75382;-89
2023/06/24 21:44:10;;;;;;;10.20;5.90;;;;;;;26.46;46.50;100396.42;109355;1260;67561;31
2023/06/24 21:46:39;;;;;;;;;;;;;;;26.46;46.49;100395.81;109283;1265;67543;-89
2023/06/24 21:49:10;;;;;;;14.50;6.00;;;;;;;26.42;46.69;100399.45;109305;1262;67665;-89
2023/06/24 21:51:39;;;;;;;7.40;6.10;;;;;;;26.43;46.56;100399.64;109269;1260;67354;-89
2023/06/24 21:54:06;;;;;;;12.70;6.20;;;;;;;26.44;46.58;100397.16;109448;1260;75261;-89
2023/06/24 21:56:35;;;;;;;11.40;6.30;;;;;;;26.44;46.69;100392.30;109465;1261;67484;-89
2023/06/24 21:59:07;;;;;;;16.10;6.40;;;;;;;26.44;46.69;100390.35;109331;1262;67383;31
2023/06/24 22:01:33;;;;;;;9.90;6.40;;;;;;;26.44;46.81;100388.90;109131;1263;67563;-89
2023/06/24 22:04:02;;;;;;;9.40;6.40;;;;;;;26.44;46.79;100387.35;109183;1260;67507;-89
2023/06/24 22:06:28;;;;;;;12.30;6.50;;;;;;;26.44;46.74;100382.29;109511;1261;73999;-89
2023/06/24 22:08:54;;;;;;;10.50;6.50;;;;;;;26.44;46.68;100369.07;109439;1260;67558;-89
2023/06/24 22:11:21;;;;;;;10.70;6.20;;;;;;;26.45;46.71;100363.34;109375;1260;67359;-89
2023/06/24 22:13:46;;;;;;;10.40;6.40;;;;;;;26.44;46.71;100358.49;109451;1260;66920;-89
2023/06/24 22:16:13;;;;;;;7.50;5.90;;;;;;;26.44;46.72;100356.34;109443;1260;66838;-89
2023/06/24 22:18:39;;;;;;;9.20;6.50;;;;;;;26.44;46.75;100356.08;109285;1260;67744;-89
2023/06/24 22:21:05;;;;;;;7.80;5.80;;;;;;;26.44;46.71;100354.06;109573;1260;67461;-89
2023/06/24 22:23:31;;;;;;;8.90;6.10;;;;;;;26.44;46.79;100356.90;109307;1260;67306;-89
2023/06/24 22:25:58;;;;;;;7.70;6.20;;;;;;;26.44;46.65;100357.31;109461;1260;67569;-89
2023/06/24 22:28:24;;;;;;;11.60;6.60;;;;;;;26.44;46.67;100352.06;109424;1260;67632;-89
2023/06/24 22:30:50;;;;;;;9.70;6.10;;;;;;;26.44;46.82;100350.77;109457;1260;67686;-89
2023/06/24 22:33:16;;;;;;;10.50;6.30;;;;;;;26.44;46.83;100355.45;109481;1263;67008;-89
2023/06/24 22:35:43;;;;;;;8.00;5.70;;;;;;;26.44;46.73;100357.02;109311;1260;67593;-89
2023/06/24 22:38:10;;;;;;;45.50;7.80;;;;;;;26.43;46.96;100358.63;109494;1260;67187;-89
2023/06/24 22:40:49;;;;;;;9.60;6.30;;;;;;;26.44;46.73;100365.38;109728;1260;74081;-90
2023/06/24 22:43:18;;;;;;;10.00;6.00;;;;;;;26.43;46.94;100360.53;109553;1260;67519;-89
2023/06/24 22:56:45;;;;;;;8.50;5.50;;;;;;;26.41;47.15;100346.29;109628;1260;67009;-89
2023/06/24 23:10:13;;;;;;;9.00;5.90;;;;;;;26.41;47.00;100338.56;109738;1260;66991;-89
2023/06/24 23:12:41;;;;;;;9.00;5.70;;;;;;;26.41;47.26;100337.73;109467;1261;66883;-90
2023/06/24 23:23:56;;;;;;;12.00;6.00;;;;;;;26.39;47.09;100329.77;109623;1261;67042;-89
2023/06/24 23:26:23;;;;;;;7.90;5.70;;;;;;;26.39;47.16;100327.08;109538;1260;67624;-89
2023/06/24 23:29:15;;;;;;;7.00;5.40;;;;;;;26.39;47.07;100323.19;109621;1260;67190;31
2023/06/24 23:32:12;;;;;;;11.00;6.10;;;;;;;26.40;47.21;100329.92;109451;1263;66861;-89
2023/06/24 23:34:50;;;;;;;10.30;5.80;;;;;;;26.39;47.26;100326.52;109603;1261;74312;31
2023/06/24 23:37:25;;;;;;;9.60;5.10;;;;;;;26.39;47.28;100326.66;109471;1261;67142;-89
2023/06/24 23:42:40;;;;;;;7.90;5.30;;;;;;;26.39;47.21;100321.52;109662;1260;66823;-89
2023/06/24 23:59:06;;;;;;;8.60;5.70;;;;;;;26.39;47.40;100335.56;109685;1263;67579;-89
